sensor_id;sensor_type;location;lat;lon;timestamp;temperature;humidity
16271;DHT22;8243;49.048;8.396;2023-03-11T00:00:44;4.20;74.80
16271;DHT22;8243;49.048;8.396;2023-03-11T00:03:12;4.10;75.90
16271;DHT22;8243;49.048;8.396;2023-03-11T00:05:40;3.90;76.60
16271;DHT22;8243;49.048;8.396;2023-03-11T00:08:10;4.20;78.20
16271;DHT22;8243;49.048;8.396;2023-03-11T00:10:41;4.10;79.40
16271;DHT22;8243;49.048;8.396;2023-03-11T00:13:08;3.80;81.40
16271;DHT22;8243;49.048;8.396;2023-03-11T00:15:35;3.90;82.10
16271;DHT22;8243;49.048;8.396;2023-03-11T00:18:00;3.90;83.10
16271;DHT22;8243;49.048;8.396;2023-03-11T00:20:35;3.50;84.20
16271;DHT22;8243;49.048;8.396;2023-03-11T00:23:03;3.50;83.60
16271;DHT22;8243;49.048;8.396;2023-03-11T00:25:30;3.60;86.50
16271;DHT22;8243;49.048;8.396;2023-03-11T00:27:57;3.50;89.40
16271;DHT22;8243;49.048;8.396;2023-03-11T00:30:23;3.30;90.20
16271;DHT22;8243;49.048;8.396;2023-03-11T00:32:50;3.40;91.50
16271;DHT22;8243;49.048;8.396;2023-03-11T00:35:22;3.20;92.10
16271;DHT22;8243;49.048;8.396;2023-03-11T00:37:52;3.10;91.80
16271;DHT22;8243;49.048;8.396;2023-03-11T00:40:19;3.10;92.70
16271;DHT22;8243;49.048;8.396;2023-03-11T00:42:45;3.10;91.40
16271;DHT22;8243;49.048;8.396;2023-03-11T00:45:11;3.00;90.50
16271;DHT22;8243;49.048;8.396;2023-03-11T00:47:37;3.00;86.00
16271;DHT22;8243;49.048;8.396;2023-03-11T00:50:03;3.00;83.50
16271;DHT22;8243;49.048;8.396;2023-03-11T00:52:29;3.20;83.00
16271;DHT22;8243;49.048;8.396;2023-03-11T00:54:55;3.10;81.60
16271;DHT22;8243;49.048;8.396;2023-03-11T00:57:20;3.10;82.00
16271;DHT22;8243;49.048;8.396;2023-03-11T00:59:46;2.90;81.60
16271;DHT22;8243;49.048;8.396;2023-03-11T01:02:11;3.00;80.20
16271;DHT22;8243;49.048;8.396;2023-03-11T01:04:44;2.90;80.00
16271;DHT22;8243;49.048;8.396;2023-03-11T01:07:10;2.90;79.00
16271;DHT22;8243;49.048;8.396;2023-03-11T01:09:35;2.80;79.40
16271;DHT22;8243;49.048;8.396;2023-03-11T01:12:01;2.90;80.40
16271;DHT22;8243;49.048;8.396;2023-03-11T01:14:26;2.80;80.10
16271;DHT22;8243;49.048;8.396;2023-03-11T01:16:52;2.60;80.40
16271;DHT22;8243;49.048;8.396;2023-03-11T01:19:19;2.50;79.30
16271;DHT22;8243;49.048;8.396;2023-03-11T01:21:44;2.80;79.30
16271;DHT22;8243;49.048;8.396;2023-03-11T01:24:10;2.60;79.10
16271;DHT22;8243;49.048;8.396;2023-03-11T01:26:36;2.60;79.10
16271;DHT22;8243;49.048;8.396;2023-03-11T01:29:01;2.70;78.50
16271;DHT22;8243;49.048;8.396;2023-03-11T01:31:27;2.60;76.40
16271;DHT22;8243;49.048;8.396;2023-03-11T01:33:52;2.60;74.60
16271;DHT22;8243;49.048;8.396;2023-03-11T01:36:18;2.50;76.20
16271;DHT22;8243;49.048;8.396;2023-03-11T01:38:43;2.60;76.10
16271;DHT22;8243;49.048;8.396;2023-03-11T01:41:10;2.30;76.90
16271;DHT22;8243;49.048;8.396;2023-03-11T01:48:39;2.40;75.70
16271;DHT22;8243;49.048;8.396;2023-03-11T01:51:06;2.30;73.00
16271;DHT22;8243;49.048;8.396;2023-03-11T01:53:33;2.40;72.70
16271;DHT22;8243;49.048;8.396;2023-03-11T01:56:00;2.30;72.70
16271;DHT22;8243;49.048;8.396;2023-03-11T01:58:31;2.20;73.10
16271;DHT22;8243;49.048;8.396;2023-03-11T02:00:59;2.20;69.40
16271;DHT22;8243;49.048;8.396;2023-03-11T02:03:31;2.10;68.50
16271;DHT22;8243;49.048;8.396;2023-03-11T02:06:00;2.00;69.30
16271;DHT22;8243;49.048;8.396;2023-03-11T02:08:26;2.20;68.30
16271;DHT22;8243;49.048;8.396;2023-03-11T02:10:54;2.10;67.50
16271;DHT22;8243;49.048;8.396;2023-03-11T02:13:21;2.00;67.70
16271;DHT22;8243;49.048;8.396;2023-03-11T02:15:47;2.10;67.80
16271;DHT22;8243;49.048;8.396;2023-03-11T02:18:14;2.00;67.40
16271;DHT22;8243;49.048;8.396;2023-03-11T02:20:54;1.90;68.00
16271;DHT22;8243;49.048;8.396;2023-03-11T02:23:25;1.80;68.80
16271;DHT22;8243;49.048;8.396;2023-03-11T02:26:23;1.70;69.30
16271;DHT22;8243;49.048;8.396;2023-03-11T02:28:52;1.90;69.50
16271;DHT22;8243;49.048;8.396;2023-03-11T02:31:18;1.70;69.60
16271;DHT22;8243;49.048;8.396;2023-03-11T02:33:45;1.80;70.70
16271;DHT22;8243;49.048;8.396;2023-03-11T02:36:37;1.60;71.20
16271;DHT22;8243;49.048;8.396;2023-03-11T02:39:04;1.50;72.80
16271;DHT22;8243;49.048;8.396;2023-03-11T02:41:31;1.40;72.50
16271;DHT22;8243;49.048;8.396;2023-03-11T02:43:58;1.40;73.10
16271;DHT22;8243;49.048;8.396;2023-03-11T02:46:24;1.60;72.90
16271;DHT22;8243;49.048;8.396;2023-03-11T02:48:51;1.30;73.80
16271;DHT22;8243;49.048;8.396;2023-03-11T02:51:17;1.50;73.60
16271;DHT22;8243;49.048;8.396;2023-03-11T02:53:51;1.30;74.30
16271;DHT22;8243;49.048;8.396;2023-03-11T02:56:18;1.40;75.70
16271;DHT22;8243;49.048;8.396;2023-03-11T02:58:44;1.10;76.50
16271;DHT22;8243;49.048;8.396;2023-03-11T03:01:10;1.20;78.60
16271;DHT22;8243;49.048;8.396;2023-03-11T03:03:35;1.10;80.50
16271;DHT22;8243;49.048;8.396;2023-03-11T03:06:01;1.10;81.40
16271;DHT22;8243;49.048;8.396;2023-03-11T03:08:27;1.00;82.30
16271;DHT22;8243;49.048;8.396;2023-03-11T03:10:52;1.00;82.70
16271;DHT22;8243;49.048;8.396;2023-03-11T03:13:18;1.20;82.60
16271;DHT22;8243;49.048;8.396;2023-03-11T03:15:44;1.00;83.00
16271;DHT22;8243;49.048;8.396;2023-03-11T03:18:09;1.10;83.10
16271;DHT22;8243;49.048;8.396;2023-03-11T03:20:35;1.10;84.60
16271;DHT22;8243;49.048;8.396;2023-03-11T03:23:01;0.90;85.20
16271;DHT22;8243;49.048;8.396;2023-03-11T03:25:27;1.00;85.70
16271;DHT22;8243;49.048;8.396;2023-03-11T03:27:53;0.90;86.80
16271;DHT22;8243;49.048;8.396;2023-03-11T03:30:18;1.00;87.70
16271;DHT22;8243;49.048;8.396;2023-03-11T03:32:44;1.00;88.20
16271;DHT22;8243;49.048;8.396;2023-03-11T03:35:10;0.90;90.00
16271;DHT22;8243;49.048;8.396;2023-03-11T03:37:36;0.80;91.10
16271;DHT22;8243;49.048;8.396;2023-03-11T03:40:03;0.70;91.50
16271;DHT22;8243;49.048;8.396;2023-03-11T03:42:35;0.70;92.10
16271;DHT22;8243;49.048;8.396;2023-03-11T03:45:02;0.70;93.30
16271;DHT22;8243;49.048;8.396;2023-03-11T03:47:28;0.80;93.90
16271;DHT22;8243;49.048;8.396;2023-03-11T03:49:54;0.60;93.80
16271;DHT22;8243;49.048;8.396;2023-03-11T03:52:20;0.50;94.60
16271;DHT22;8243;49.048;8.396;2023-03-11T03:54:45;0.60;95.20
16271;DHT22;8243;49.048;8.396;2023-03-11T03:57:11;0.60;96.30
16271;DHT22;8243;49.048;8.396;2023-03-11T03:59:36;0.70;98.60
16271;DHT22;8243;49.048;8.396;2023-03-11T04:02:02;0.60;98.30
16271;DHT22;8243;49.048;8.396;2023-03-11T04:04:28;0.50;99.00
16271;DHT22;8243;49.048;8.396;2023-03-11T04:06:54;0.40;99.70
16271;DHT22;8243;49.048;8.396;2023-03-11T04:09:19;0.50;99.50
16271;DHT22;8243;49.048;8.396;2023-03-11T04:11:45;0.40;99.90
16271;DHT22;8243;49.048;8.396;2023-03-11T04:14:11;0.50;99.90
16271;DHT22;8243;49.048;8.396;2023-03-11T04:16:37;0.50;99.90
16271;DHT22;8243;49.048;8.396;2023-03-11T04:19:03;0.30;99.90
16271;DHT22;8243;49.048;8.396;2023-03-11T04:21:30;0.30;99.90
16271;DHT22;8243;49.048;8.396;2023-03-11T04:23:56;0.40;99.90
16271;DHT22;8243;49.048;8.396;2023-03-11T04:26:22;0.40;99.90
16271;DHT22;8243;49.048;8.396;2023-03-11T04:28:47;0.30;99.90
16271;DHT22;8243;49.048;8.396;2023-03-11T04:31:13;0.10;99.90
16271;DHT22;8243;49.048;8.396;2023-03-11T04:33:39;0.20;99.90
16271;DHT22;8243;49.048;8.396;2023-03-11T04:36:06;0.40;99.90
16271;DHT22;8243;49.048;8.396;2023-03-11T04:38:32;0.40;99.90
16271;DHT22;8243;49.048;8.396;2023-03-11T04:41:04;0.20;99.90
16271;DHT22;8243;49.048;8.396;2023-03-11T04:43:30;0.30;99.90
16271;DHT22;8243;49.048;8.396;2023-03-11T04:45:56;0.30;99.90
16271;DHT22;8243;49.048;8.396;2023-03-11T04:48:22;0.20;99.90
16271;DHT22;8243;49.048;8.396;2023-03-11T04:50:49;0.20;99.90
16271;DHT22;8243;49.048;8.396;2023-03-11T04:53:14;0.40;99.90
16271;DHT22;8243;49.048;8.396;2023-03-11T04:55:40;0.40;99.90
16271;DHT22;8243;49.048;8.396;2023-03-11T04:58:06;0.20;99.90
16271;DHT22;8243;49.048;8.396;2023-03-11T05:00:31;0.30;99.90
16271;DHT22;8243;49.048;8.396;2023-03-11T05:02:57;0.10;99.90
16271;DHT22;8243;49.048;8.396;2023-03-11T05:05:22;0.00;99.90
16271;DHT22;8243;49.048;8.396;2023-03-11T05:07:48;0.10;99.90
16271;DHT22;8243;49.048;8.396;2023-03-11T05:10:14;0.10;99.90
16271;DHT22;8243;49.048;8.396;2023-03-11T05:12:46;0.10;99.90
16271;DHT22;8243;49.048;8.396;2023-03-11T05:15:12;0.10;99.90
16271;DHT22;8243;49.048;8.396;2023-03-11T05:17:38;0.00;99.90
16271;DHT22;8243;49.048;8.396;2023-03-11T05:20:25;-0.10;99.90
16271;DHT22;8243;49.048;8.396;2023-03-11T05:22:51;0.00;99.90
16271;DHT22;8243;49.048;8.396;2023-03-11T05:25:17;-0.10;99.90
16271;DHT22;8243;49.048;8.396;2023-03-11T05:27:42;-0.20;99.90
16271;DHT22;8243;49.048;8.396;2023-03-11T05:30:08;-0.10;99.90
16271;DHT22;8243;49.048;8.396;2023-03-11T05:32:34;0.00;99.90
16271;DHT22;8243;49.048;8.396;2023-03-11T05:35:00;-0.10;99.90
16271;DHT22;8243;49.048;8.396;2023-03-11T05:37:26;0.00;99.90
16271;DHT22;8243;49.048;8.396;2023-03-11T05:39:51;-0.10;99.90
16271;DHT22;8243;49.048;8.396;2023-03-11T05:42:17;-0.10;99.90
16271;DHT22;8243;49.048;8.396;2023-03-11T05:44:43;-0.20;99.90
16271;DHT22;8243;49.048;8.396;2023-03-11T05:47:08;-0.20;99.90
16271;DHT22;8243;49.048;8.396;2023-03-11T05:49:34;-0.30;99.90
16271;DHT22;8243;49.048;8.396;2023-03-11T05:52:00;-0.30;99.90
16271;DHT22;8243;49.048;8.396;2023-03-11T05:54:25;-0.30;99.90
16271;DHT22;8243;49.048;8.396;2023-03-11T05:56:51;-0.30;99.90
16271;DHT22;8243;49.048;8.396;2023-03-11T05:59:16;-0.40;99.90
16271;DHT22;8243;49.048;8.396;2023-03-11T06:01:43;-0.40;99.90
16271;DHT22;8243;49.048;8.396;2023-03-11T06:04:09;-0.40;99.90
16271;DHT22;8243;49.048;8.396;2023-03-11T06:06:35;-0.40;99.90
16271;DHT22;8243;49.048;8.396;2023-03-11T06:09:01;-0.30;99.90
16271;DHT22;8243;49.048;8.396;2023-03-11T06:11:28;-0.30;99.90
16271;DHT22;8243;49.048;8.396;2023-03-11T06:13:55;-0.30;99.90
16271;DHT22;8243;49.048;8.396;2023-03-11T06:16:22;-0.50;99.90
16271;DHT22;8243;49.048;8.396;2023-03-11T06:18:49;-0.20;99.90
16271;DHT22;8243;49.048;8.396;2023-03-11T06:21:19;0.10;99.90
16271;DHT22;8243;49.048;8.396;2023-03-11T06:23:45;1.10;99.90
16271;DHT22;8243;49.048;8.396;2023-03-11T06:26:13;2.00;99.90
16271;DHT22;8243;49.048;8.396;2023-03-11T06:28:41;2.70;99.90
16271;DHT22;8243;49.048;8.396;2023-03-11T06:31:09;2.80;99.90
16271;DHT22;8243;49.048;8.396;2023-03-11T06:33:34;3.40;97.70
16271;DHT22;8243;49.048;8.396;2023-03-11T06:36:01;3.30;92.00
16271;DHT22;8243;49.048;8.396;2023-03-11T06:38:27;3.20;91.30
16271;DHT22;8243;49.048;8.396;2023-03-11T06:40:53;3.50;90.90
16271;DHT22;8243;49.048;8.396;2023-03-11T06:43:20;3.50;90.10
16271;DHT22;8243;49.048;8.396;2023-03-11T06:45:46;3.80;88.50
16271;DHT22;8243;49.048;8.396;2023-03-11T06:48:12;4.10;84.90
16271;DHT22;8243;49.048;8.396;2023-03-11T06:50:37;5.20;81.80
16271;DHT22;8243;49.048;8.396;2023-03-11T06:53:03;6.20;74.10
16271;DHT22;8243;49.048;8.396;2023-03-11T06:55:32;7.10;65.70
16271;DHT22;8243;49.048;8.396;2023-03-11T06:57:58;8.00;58.30
16271;DHT22;8243;49.048;8.396;2023-03-11T07:00:23;8.70;51.10
16271;DHT22;8243;49.048;8.396;2023-03-11T07:02:49;8.80;48.00
16271;DHT22;8243;49.048;8.396;2023-03-11T07:05:15;8.50;44.90
16271;DHT22;8243;49.048;8.396;2023-03-11T07:07:41;8.30;42.80
16271;DHT22;8243;49.048;8.396;2023-03-11T07:10:07;7.70;41.20
16271;DHT22;8243;49.048;8.396;2023-03-11T07:12:32;7.20;40.90
16271;DHT22;8243;49.048;8.396;2023-03-11T07:14:59;6.90;41.90
16271;DHT22;8243;49.048;8.396;2023-03-11T07:17:25;7.60;41.10
16271;DHT22;8243;49.048;8.396;2023-03-11T07:19:51;8.20;38.40
16271;DHT22;8243;49.048;8.396;2023-03-11T07:22:17;9.20;34.10
16271;DHT22;8243;49.048;8.396;2023-03-11T07:24:47;9.80;31.20
16271;DHT22;8243;49.048;8.396;2023-03-11T07:27:13;10.30;28.00
16271;DHT22;8243;49.048;8.396;2023-03-11T07:29:39;10.60;25.80
16271;DHT22;8243;49.048;8.396;2023-03-11T07:32:07;10.80;24.90
16271;DHT22;8243;49.048;8.396;2023-03-11T07:34:32;11.20;23.20
16271;DHT22;8243;49.048;8.396;2023-03-11T07:36:58;11.60;22.00
16271;DHT22;8243;49.048;8.396;2023-03-11T07:39:24;12.00;20.70
16271;DHT22;8243;49.048;8.396;2023-03-11T07:41:50;11.70;19.60
16271;DHT22;8243;49.048;8.396;2023-03-11T07:44:16;11.30;18.70
16271;DHT22;8243;49.048;8.396;2023-03-11T07:46:42;11.20;18.10
16271;DHT22;8243;49.048;8.396;2023-03-11T07:49:07;11.40;17.00
16271;DHT22;8243;49.048;8.396;2023-03-11T07:51:36;11.10;16.10
16271;DHT22;8243;49.048;8.396;2023-03-11T07:54:02;11.10;15.70
16271;DHT22;8243;49.048;8.396;2023-03-11T07:56:31;10.80;16.10
16271;DHT22;8243;49.048;8.396;2023-03-11T07:58:58;10.90;16.10
16271;DHT22;8243;49.048;8.396;2023-03-11T08:01:26;11.10;15.40
16271;DHT22;8243;49.048;8.396;2023-03-11T08:03:54;11.40;14.40
16271;DHT22;8243;49.048;8.396;2023-03-11T08:06:29;11.00;14.70
16271;DHT22;8243;49.048;8.396;2023-03-11T08:08:56;11.20;14.30
16271;DHT22;8243;49.048;8.396;2023-03-11T08:11:22;11.80;13.40
16271;DHT22;8243;49.048;8.396;2023-03-11T08:13:48;11.90;13.60
16271;DHT22;8243;49.048;8.396;2023-03-11T08:16:16;11.70;12.10
16271;DHT22;8243;49.048;8.396;2023-03-11T08:18:42;12.10;12.60
16271;DHT22;8243;49.048;8.396;2023-03-11T08:21:14;12.00;11.20
16271;DHT22;8243;49.048;8.396;2023-03-11T08:23:39;12.20;11.80
16271;DHT22;8243;49.048;8.396;2023-03-11T08:26:07;12.50;10.50
16271;DHT22;8243;49.048;8.396;2023-03-11T08:28:34;12.70;9.90
16271;DHT22;8243;49.048;8.396;2023-03-11T08:30:59;12.50;10.50
16271;DHT22;8243;49.048;8.396;2023-03-11T08:33:25;12.10;10.20
16271;DHT22;8243;49.048;8.396;2023-03-11T08:35:51;11.80;10.80
16271;DHT22;8243;49.048;8.396;2023-03-11T08:38:16;12.70;9.90
16271;DHT22;8243;49.048;8.396;2023-03-11T08:40:42;12.60;8.10
16271;DHT22;8243;49.048;8.396;2023-03-11T08:43:10;11.20;9.50
16271;DHT22;8243;49.048;8.396;2023-03-11T08:45:41;12.20;10.10
16271;DHT22;8243;49.048;8.396;2023-03-11T08:48:09;12.70;9.10
16271;DHT22;8243;49.048;8.396;2023-03-11T08:50:35;12.50;9.00
16271;DHT22;8243;49.048;8.396;2023-03-11T08:53:00;12.70;8.80
16271;DHT22;8243;49.048;8.396;2023-03-11T08:55:28;13.40;7.30
16271;DHT22;8243;49.048;8.396;2023-03-11T08:57:54;13.20;7.60
16271;DHT22;8243;49.048;8.396;2023-03-11T09:00:21;13.10;8.90
16271;DHT22;8243;49.048;8.396;2023-03-11T09:02:51;13.60;8.10
16271;DHT22;8243;49.048;8.396;2023-03-11T09:05:17;13.80;7.30
16271;DHT22;8243;49.048;8.396;2023-03-11T09:07:42;13.80;7.20
16271;DHT22;8243;49.048;8.396;2023-03-11T09:10:10;14.30;6.70
16271;DHT22;8243;49.048;8.396;2023-03-11T09:12:37;13.60;7.50
16271;DHT22;8243;49.048;8.396;2023-03-11T09:15:03;13.00;6.30
16271;DHT22;8243;49.048;8.396;2023-03-11T09:17:28;13.20;6.50
16271;DHT22;8243;49.048;8.396;2023-03-11T09:19:54;12.30;6.40
16271;DHT22;8243;49.048;8.396;2023-03-11T09:22:19;12.20;5.90
16271;DHT22;8243;49.048;8.396;2023-03-11T09:24:52;11.90;7.00
16271;DHT22;8243;49.048;8.396;2023-03-11T09:27:18;12.70;6.00
16271;DHT22;8243;49.048;8.396;2023-03-11T09:29:43;12.50;5.80
16271;DHT22;8243;49.048;8.396;2023-03-11T09:32:13;12.50;6.10
16271;DHT22;8243;49.048;8.396;2023-03-11T09:34:38;12.20;5.60
16271;DHT22;8243;49.048;8.396;2023-03-11T09:37:04;11.80;6.40
16271;DHT22;8243;49.048;8.396;2023-03-11T09:39:30;11.40;7.10
16271;DHT22;8243;49.048;8.396;2023-03-11T09:41:57;11.40;6.70
16271;DHT22;8243;49.048;8.396;2023-03-11T09:44:36;11.30;7.90
16271;DHT22;8243;49.048;8.396;2023-03-11T09:50:05;8.60;10.50
16271;DHT22;8243;49.048;8.396;2023-03-11T09:55:38;6.60;13.80
16271;DHT22;8243;49.048;8.396;2023-03-11T10:00:50;6.30;16.40
16271;DHT22;8243;49.048;8.396;2023-03-11T10:03:34;7.40;16.30
16271;DHT22;8243;49.048;8.396;2023-03-11T10:08:45;8.10;12.30
16271;DHT22;8243;49.048;8.396;2023-03-11T10:11:33;7.90;12.50
16271;DHT22;8243;49.048;8.396;2023-03-11T10:20:21;11.70;10.30
16271;DHT22;8243;49.048;8.396;2023-03-11T10:23:21;11.90;9.40
16271;DHT22;8243;49.048;8.396;2023-03-11T10:26:10;12.10;6.90
16271;DHT22;8243;49.048;8.396;2023-03-11T10:28:44;10.90;8.20
16271;DHT22;8243;49.048;8.396;2023-03-11T10:31:35;10.30;9.50
16271;DHT22;8243;49.048;8.396;2023-03-11T10:34:03;9.30;10.60
16271;DHT22;8243;49.048;8.396;2023-03-11T10:36:48;8.90;11.10
16271;DHT22;8243;49.048;8.396;2023-03-11T10:39:15;8.20;11.70
16271;DHT22;8243;49.048;8.396;2023-03-11T10:42:04;8.30;11.60
16271;DHT22;8243;49.048;8.396;2023-03-11T10:44:38;9.10;10.30
16271;DHT22;8243;49.048;8.396;2023-03-11T10:47:08;10.00;8.50
16271;DHT22;8243;49.048;8.396;2023-03-11T10:49:36;10.30;7.00
16271;DHT22;8243;49.048;8.396;2023-03-11T10:52:05;10.60;6.60
16271;DHT22;8243;49.048;8.396;2023-03-11T10:54:34;10.30;6.80
16271;DHT22;8243;49.048;8.396;2023-03-11T10:57:08;10.50;6.90
16271;DHT22;8243;49.048;8.396;2023-03-11T10:59:51;10.80;6.50
16271;DHT22;8243;49.048;8.396;2023-03-11T11:07:41;9.40;9.00
16271;DHT22;8243;49.048;8.396;2023-03-11T11:10:22;9.30;9.30
16271;DHT22;8243;49.048;8.396;2023-03-11T11:15:41;9.40;9.90
16271;DHT22;8243;49.048;8.396;2023-03-11T11:21:10;9.40;9.70
16271;DHT22;8243;49.048;8.396;2023-03-11T11:26:18;8.60;9.10
16271;DHT22;8243;49.048;8.396;2023-03-11T11:28:45;8.40;10.40
16271;DHT22;8243;49.048;8.396;2023-03-11T11:31:23;8.40;10.80
16271;DHT22;8243;49.048;8.396;2023-03-11T11:33:55;8.50;11.50
16271;DHT22;8243;49.048;8.396;2023-03-11T11:36:26;8.70;9.00
16271;DHT22;8243;49.048;8.396;2023-03-11T11:38:53;8.50;10.30
16271;DHT22;8243;49.048;8.396;2023-03-11T11:41:21;8.40;11.00
16271;DHT22;8243;49.048;8.396;2023-03-11T11:46:37;8.80;9.30
16271;DHT22;8243;49.048;8.396;2023-03-11T11:49:20;8.70;8.50
16271;DHT22;8243;49.048;8.396;2023-03-11T11:52:05;9.20;7.10
16271;DHT22;8243;49.048;8.396;2023-03-11T11:57:12;9.80;7.60
16271;DHT22;8243;49.048;8.396;2023-03-11T11:59:39;10.40;6.90
16271;DHT22;8243;49.048;8.396;2023-03-11T12:05:29;9.80;7.20
16271;DHT22;8243;49.048;8.396;2023-03-11T12:11:03;10.60;5.50
16271;DHT22;8243;49.048;8.396;2023-03-11T12:13:49;10.10;6.30
16271;DHT22;8243;49.048;8.396;2023-03-11T12:16:37;9.50;7.30
16271;DHT22;8243;49.048;8.396;2023-03-11T12:24:56;9.40;9.00
16271;DHT22;8243;49.048;8.396;2023-03-11T12:27:30;9.50;7.50
16271;DHT22;8243;49.048;8.396;2023-03-11T12:30:19;9.00;7.90
16271;DHT22;8243;49.048;8.396;2023-03-11T12:32:49;8.20;8.20
16271;DHT22;8243;49.048;8.396;2023-03-11T12:35:27;8.10;9.30
16271;DHT22;8243;49.048;8.396;2023-03-11T12:38:03;8.10;9.60
16271;DHT22;8243;49.048;8.396;2023-03-11T12:43:27;8.20;8.20
16271;DHT22;8243;49.048;8.396;2023-03-11T12:46:13;8.00;9.60
16271;DHT22;8243;49.048;8.396;2023-03-11T12:54:27;7.00;9.10
16271;DHT22;8243;49.048;8.396;2023-03-11T12:56:54;6.90;8.10
16271;DHT22;8243;49.048;8.396;2023-03-11T12:59:34;6.80;8.90
16271;DHT22;8243;49.048;8.396;2023-03-11T13:07:35;6.40;10.30
16271;DHT22;8243;49.048;8.396;2023-03-11T13:17:59;6.70;10.30
16271;DHT22;8243;49.048;8.396;2023-03-11T13:23:33;6.90;10.20
16271;DHT22;8243;49.048;8.396;2023-03-11T13:26:34;7.10;9.80
16271;DHT22;8243;49.048;8.396;2023-03-11T13:38:32;8.00;8.60
16271;DHT22;8243;49.048;8.396;2023-03-11T13:41:02;7.80;7.90
16271;DHT22;8243;49.048;8.396;2023-03-11T13:43:29;8.10;9.10
16271;DHT22;8243;49.048;8.396;2023-03-11T13:46:06;8.60;8.00
16271;DHT22;8243;49.048;8.396;2023-03-11T13:48:56;8.90;7.50
16271;DHT22;8243;49.048;8.396;2023-03-11T13:51:42;9.30;6.40
16271;DHT22;8243;49.048;8.396;2023-03-11T13:54:29;9.50;6.90
16271;DHT22;8243;49.048;8.396;2023-03-11T13:56:59;8.80;7.60
16271;DHT22;8243;49.048;8.396;2023-03-11T13:59:31;9.00;8.30
16271;DHT22;8243;49.048;8.396;2023-03-11T14:02:14;9.30;8.10
16271;DHT22;8243;49.048;8.396;2023-03-11T14:04:47;9.40;8.10
16271;DHT22;8243;49.048;8.396;2023-03-11T14:07:27;9.20;6.90
16271;DHT22;8243;49.048;8.396;2023-03-11T14:12:44;8.50;7.20
16271;DHT22;8243;49.048;8.396;2023-03-11T14:15:46;8.60;7.20
16271;DHT22;8243;49.048;8.396;2023-03-11T14:18:32;8.90;7.90
16271;DHT22;8243;49.048;8.396;2023-03-11T14:20:58;9.10;7.30
16271;DHT22;8243;49.048;8.396;2023-03-11T14:23:32;9.30;7.20
16271;DHT22;8243;49.048;8.396;2023-03-11T14:26:00;9.30;7.20
16271;DHT22;8243;49.048;8.396;2023-03-11T14:28:30;9.40;7.60
16271;DHT22;8243;49.048;8.396;2023-03-11T14:30:59;9.70;6.80
16271;DHT22;8243;49.048;8.396;2023-03-11T14:33:25;9.70;6.80
16271;DHT22;8243;49.048;8.396;2023-03-11T14:38:23;10.00;6.50
16271;DHT22;8243;49.048;8.396;2023-03-11T14:40:56;10.10;6.00
16271;DHT22;8243;49.048;8.396;2023-03-11T14:43:22;10.50;5.10
16271;DHT22;8243;49.048;8.396;2023-03-11T14:45:49;10.40;4.10
16271;DHT22;8243;49.048;8.396;2023-03-11T14:48:37;9.90;5.90
16271;DHT22;8243;49.048;8.396;2023-03-11T14:51:06;10.00;5.80
16271;DHT22;8243;49.048;8.396;2023-03-11T14:53:42;9.70;7.00
16271;DHT22;8243;49.048;8.396;2023-03-11T14:56:21;9.70;6.30
16271;DHT22;8243;49.048;8.396;2023-03-11T14:58:59;9.40;6.00
16271;DHT22;8243;49.048;8.396;2023-03-11T15:01:30;9.30;7.40
16271;DHT22;8243;49.048;8.396;2023-03-11T15:04:05;9.30;7.10
16271;DHT22;8243;49.048;8.396;2023-03-11T15:06:34;9.20;6.20
16271;DHT22;8243;49.048;8.396;2023-03-11T15:09:16;8.70;7.70
16271;DHT22;8243;49.048;8.396;2023-03-11T15:11:54;8.40;8.30
16271;DHT22;8243;49.048;8.396;2023-03-11T15:14:28;8.20;8.20
16271;DHT22;8243;49.048;8.396;2023-03-11T15:17:22;8.10;7.10
16271;DHT22;8243;49.048;8.396;2023-03-11T15:19:55;8.10;7.90
16271;DHT22;8243;49.048;8.396;2023-03-11T15:22:35;8.10;7.60
16271;DHT22;8243;49.048;8.396;2023-03-11T15:25:03;8.00;7.80
16271;DHT22;8243;49.048;8.396;2023-03-11T15:27:39;8.00;8.00
16271;DHT22;8243;49.048;8.396;2023-03-11T15:32:43;7.90;8.00
16271;DHT22;8243;49.048;8.396;2023-03-11T15:37:39;7.70;8.20
16271;DHT22;8243;49.048;8.396;2023-03-11T15:42:37;7.80;8.00
16271;DHT22;8243;49.048;8.396;2023-03-11T15:45:18;7.80;7.90
16271;DHT22;8243;49.048;8.396;2023-03-11T15:47:47;7.90;8.00
16271;DHT22;8243;49.048;8.396;2023-03-11T15:50:24;7.80;8.50
16271;DHT22;8243;49.048;8.396;2023-03-11T15:52:53;7.70;8.10
16271;DHT22;8243;49.048;8.396;2023-03-11T15:55:19;7.60;8.60
16271;DHT22;8243;49.048;8.396;2023-03-11T15:57:46;7.60;8.80
16271;DHT22;8243;49.048;8.396;2023-03-11T16:00:19;7.30;8.70
16271;DHT22;8243;49.048;8.396;2023-03-11T16:02:46;7.20;9.20
16271;DHT22;8243;49.048;8.396;2023-03-11T16:05:18;7.30;8.90
16271;DHT22;8243;49.048;8.396;2023-03-11T16:07:45;7.30;9.40
16271;DHT22;8243;49.048;8.396;2023-03-11T16:10:12;7.40;9.60
16271;DHT22;8243;49.048;8.396;2023-03-11T16:12:38;7.30;8.70
16271;DHT22;8243;49.048;8.396;2023-03-11T16:15:05;7.10;9.20
16271;DHT22;8243;49.048;8.396;2023-03-11T16:17:31;7.10;9.10
16271;DHT22;8243;49.048;8.396;2023-03-11T16:19:56;6.90;9.50
16271;DHT22;8243;49.048;8.396;2023-03-11T16:22:31;6.90;9.70
16271;DHT22;8243;49.048;8.396;2023-03-11T16:24:58;6.90;9.20
16271;DHT22;8243;49.048;8.396;2023-03-11T16:27:24;6.80;10.20
16271;DHT22;8243;49.048;8.396;2023-03-11T16:29:50;6.70;10.40
16271;DHT22;8243;49.048;8.396;2023-03-11T16:32:15;6.70;10.00
16271;DHT22;8243;49.048;8.396;2023-03-11T16:34:41;6.70;10.30
16271;DHT22;8243;49.048;8.396;2023-03-11T16:37:07;6.70;10.10
16271;DHT22;8243;49.048;8.396;2023-03-11T16:39:33;6.70;10.30
16271;DHT22;8243;49.048;8.396;2023-03-11T16:41:59;6.70;11.00
16271;DHT22;8243;49.048;8.396;2023-03-11T16:44:24;6.70;11.50
16271;DHT22;8243;49.048;8.396;2023-03-11T16:46:50;6.60;11.30
16271;DHT22;8243;49.048;8.396;2023-03-11T16:49:16;6.40;11.80
16271;DHT22;8243;49.048;8.396;2023-03-11T16:51:41;6.30;12.20
16271;DHT22;8243;49.048;8.396;2023-03-11T16:54:07;6.10;12.40
16271;DHT22;8243;49.048;8.396;2023-03-11T16:56:33;6.00;12.90
16271;DHT22;8243;49.048;8.396;2023-03-11T16:58:59;5.80;12.90
16271;DHT22;8243;49.048;8.396;2023-03-11T17:01:25;5.80;12.60
16271;DHT22;8243;49.048;8.396;2023-03-11T17:03:51;5.80;13.10
16271;DHT22;8243;49.048;8.396;2023-03-11T17:06:18;5.70;13.30
16271;DHT22;8243;49.048;8.396;2023-03-11T17:08:44;5.60;13.90
16271;DHT22;8243;49.048;8.396;2023-03-11T17:11:18;5.50;14.20
16271;DHT22;8243;49.048;8.396;2023-03-11T17:17:06;5.40;14.70
16271;DHT22;8243;49.048;8.396;2023-03-11T17:19:38;5.30;15.60
16271;DHT22;8243;49.048;8.396;2023-03-11T17:22:04;5.20;15.80
16271;DHT22;8243;49.048;8.396;2023-03-11T17:24:31;5.20;16.00
16271;DHT22;8243;49.048;8.396;2023-03-11T17:26:56;5.10;16.30
16271;DHT22;8243;49.048;8.396;2023-03-11T17:29:22;5.00;16.40
16271;DHT22;8243;49.048;8.396;2023-03-11T17:31:48;5.00;16.20
16271;DHT22;8243;49.048;8.396;2023-03-11T17:34:14;4.90;16.30
16271;DHT22;8243;49.048;8.396;2023-03-11T17:36:40;4.90;16.70
16271;DHT22;8243;49.048;8.396;2023-03-11T17:39:05;4.80;16.70
16271;DHT22;8243;49.048;8.396;2023-03-11T17:41:32;4.70;16.90
16271;DHT22;8243;49.048;8.396;2023-03-11T17:43:57;4.60;16.90
16271;DHT22;8243;49.048;8.396;2023-03-11T17:46:23;4.50;17.30
16271;DHT22;8243;49.048;8.396;2023-03-11T17:48:49;4.40;18.00
16271;DHT22;8243;49.048;8.396;2023-03-11T17:51:17;4.40;17.50
16271;DHT22;8243;49.048;8.396;2023-03-11T17:53:48;4.30;17.50
16271;DHT22;8243;49.048;8.396;2023-03-11T17:56:16;4.20;17.70
16271;DHT22;8243;49.048;8.396;2023-03-11T17:58:46;4.30;18.20